Time,TemperatureF,DewpointF,PressureIn,WindDirection,WindDirectionDegrees,WindSpeedMPH,WindSpeedGustMPH,Humidity,HourlyPrecipIn,Conditions,Clouds,dailyrainin,SoftwareType,DateUTC
2013-11-04 00:00:00,42.1,34.8,30.02,SW,225,0.0,-999.0,75,-99.99,,,0.00,Acu-Link.com,2013-11-04 05:00:00,
2013-11-04 00:16:00,42.3,33.9,30.01,East,90,2.2,-999.0,72,-99.99,,,0.00,Acu-Link.com,2013-11-04 05:16:00,
2013-11-04 00:31:00,42.6,33.5,30.01,East,90,0.0,-999.0,70,-99.99,,,0.00,Acu-Link.com,2013-11-04 05:31:00,
2013-11-04 00:46:00,41.2,34.5,30.03,ENE,67,0.0,-999.0,77,-99.99,,,0.00,Acu-Link.com,2013-11-04 05:46:00,
2013-11-04 01:01:00,41.0,34.0,30.02,NE,45,0.0,-999.0,76,-99.99,,,0.00,Acu-Link.com,2013-11-04 06:01:00,
2013-11-04 01:16:00,41.0,34.7,30.03,NE,45,0.0,-999.0,78,-99.99,,,0.00,Acu-Link.com,2013-11-04 06:16:00,
2013-11-04 01:31:00,40.6,33.6,30.04,NE,45,0.0,-999.0,76,-99.99,,,0.00,Acu-Link.com,2013-11-04 06:31:00,
2013-11-04 01:47:00,40.5,33.5,30.04,East,90,2.7,-999.0,76,-99.99,,,0.00,Acu-Link.com,2013-11-04 06:47:00,
2013-11-04 02:02:00,41.2,32.5,30.04,East,90,2.7,-999.0,71,-99.99,,,0.00,Acu-Link.com,2013-11-04 07:02:00,
2013-11-04 02:17:00,40.5,34.2,30.05,NNE,22,0.0,-999.0,78,-99.99,,,0.00,Acu-Link.com,2013-11-04 07:17:00,
2013-11-04 02:32:00,40.3,33.7,30.05,ENE,67,0.0,-999.0,77,-99.99,,,0.00,Acu-Link.com,2013-11-04 07:32:00,
2013-11-04 02:47:00,39.9,33.6,30.05,SE,135,1.1,-999.0,78,-99.99,,,0.00,Acu-Link.com,2013-11-04 07:47:00,
2013-11-04 03:03:00,39.7,33.4,30.04,ENE,67,0.0,-999.0,78,-99.99,,,0.00,Acu-Link.com,2013-11-04 08:03:00,
2013-11-04 03:19:00,39.9,33.0,30.04,NE,45,1.1,-999.0,76,-99.99,,,0.00,Acu-Link.com,2013-11-04 08:19:00,
2013-11-04 03:34:00,38.1,34.6,30.04,ENE,67,0.0,-999.0,87,-99.99,,,0.00,Acu-Link.com,2013-11-04 08:34:00,
2013-11-04 03:49:00,39.6,32.0,30.04,East,90,2.7,-999.0,74,-99.99,,,0.00,Acu-Link.com,2013-11-04 08:49:00,
2013-11-04 04:04:00,41.0,32.0,30.04,East,90,3.2,-999.0,70,-99.99,,,0.00,Acu-Link.com,2013-11-04 09:04:00,
2013-11-04 04:19:00,41.7,32.3,30.04,East,90,2.7,-999.0,69,-99.99,,,0.00,Acu-Link.com,2013-11-04 09:19:00,
2013-11-04 04:35:00,41.9,32.1,30.05,East,90,2.7,-999.0,68,-99.99,,,0.00,Acu-Link.com,2013-11-04 09:35:00,
2013-11-04 04:50:00,41.9,31.8,30.05,East,90,3.2,-999.0,67,-99.99,,,0.00,Acu-Link.com,2013-11-04 09:50:00,
2013-11-04 05:05:00,41.9,32.1,30.06,East,90,3.7,-999.0,68,-99.99,,,0.00,Acu-Link.com,2013-11-04 10:05:00,
2013-11-04 05:20:00,41.7,31.9,30.06,East,90,2.7,-999.0,68,-99.99,,,0.00,Acu-Link.com,2013-11-04 10:20:00,
2013-11-04 05:36:00,40.5,32.5,30.08,ESE,112,1.1,-999.0,73,-99.99,,,0.00,Acu-Link.com,2013-11-04 10:36:00,
2013-11-04 05:51:00,40.1,33.8,30.08,NE,45,0.0,-999.0,78,-99.99,,,0.00,Acu-Link.com,2013-11-04 10:51:00,
2013-11-04 06:06:00,39.2,32.3,30.09,NE,45,0.0,-999.0,76,-99.99,,,0.00,Acu-Link.com,2013-11-04 11:06:00,
2013-11-04 06:21:00,39.0,32.4,30.10,NNE,22,0.0,-999.0,77,-99.99,,,0.00,Acu-Link.com,2013-11-04 11:21:00,
2013-11-04 06:36:00,38.5,32.2,30.10,NNE,22,0.0,-999.0,78,-99.99,,,0.00,Acu-Link.com,2013-11-04 11:36:00,
2013-11-04 06:52:00,38.3,32.7,30.11,ENE,67,0.0,-999.0,80,-99.99,,,0.00,Acu-Link.com,2013-11-04 11:52:00,
2013-11-04 07:07:00,38.1,33.1,30.11,ENE,67,0.0,-999.0,82,-99.99,,,0.00,Acu-Link.com,2013-11-04 12:07:00,
2013-11-04 07:22:00,38.7,34.6,30.11,ENE,67,0.0,-999.0,85,-99.99,,,0.00,Acu-Link.com,2013-11-04 12:22:00,
2013-11-04 07:37:00,38.7,33.1,30.12,NW,315,0.0,-999.0,80,-99.99,,,0.00,Acu-Link.com,2013-11-04 12:37:00,
2013-11-04 07:52:00,39.6,32.3,30.12,ENE,67,1.1,-999.0,75,-99.99,,,0.00,Acu-Link.com,2013-11-04 12:52:00,
2013-11-04 08:08:00,41.0,32.3,30.12,East,90,1.7,-999.0,71,-99.99,,,0.00,Acu-Link.com,2013-11-04 13:08:00,
2013-11-04 08:23:00,42.1,33.4,30.13,East,90,1.7,-999.0,71,-99.99,,,0.00,Acu-Link.com,2013-11-04 13:23:00,
2013-11-04 08:38:00,42.8,32.6,30.14,East,90,4.2,-999.0,67,-99.99,,,0.00,Acu-Link.com,2013-11-04 13:38:00,
2013-11-04 08:53:00,42.8,32.2,30.14,ESE,112,2.2,-999.0,66,-99.99,,,0.00,Acu-Link.com,2013-11-04 13:53:00,
2013-11-04 09:09:00,43.2,31.9,30.16,East,90,2.7,-999.0,64,-99.99,,,0.00,Acu-Link.com,2013-11-04 14:09:00,
2013-11-04 09:24:00,44.1,33.5,30.16,East,90,0.0,-999.0,66,-99.99,,,0.00,Acu-Link.com,2013-11-04 14:24:00,
2013-11-04 09:39:00,44.6,32.0,30.15,SW,225,0.0,-999.0,61,-99.99,,,0.00,Acu-Link.com,2013-11-04 14:39:00,
2013-11-04 09:54:00,45.1,31.6,30.15,SE,135,1.7,-999.0,59,-99.99,,,0.00,Acu-Link.com,2013-11-04 14:54:00,
2013-11-04 10:09:00,45.5,31.6,30.15,SSE,157,1.7,-999.0,58,-99.99,,,0.00,Acu-Link.com,2013-11-04 15:09:00,
2013-11-04 10:24:00,46.0,30.7,30.15,East,90,1.1,-999.0,55,-99.99,,,0.00,Acu-Link.com,2013-11-04 15:24:00,
2013-11-04 10:39:00,46.6,30.4,30.14,East,90,2.7,-999.0,53,-99.99,,,0.00,Acu-Link.com,2013-11-04 15:39:00,
2013-11-04 10:54:00,47.5,31.2,30.14,NNE,22,1.1,-999.0,53,-99.99,,,0.00,Acu-Link.com,2013-11-04 15:54:00,
2013-11-04 11:10:00,47.7,30.5,30.15,East,90,3.2,-999.0,51,-99.99,,,0.00,Acu-Link.com,2013-11-04 16:10:00,
2013-11-04 11:25:00,48.9,31.1,30.14,ESE,112,2.7,-999.0,50,-99.99,,,0.00,Acu-Link.com,2013-11-04 16:25:00,
2013-11-04 11:40:00,48.9,30.6,30.14,NE,45,1.7,-999.0,49,-99.99,,,0.00,Acu-Link.com,2013-11-04 16:40:00,
2013-11-04 11:55:00,49.3,30.5,30.14,NNW,337,1.1,-999.0,48,-99.99,,,0.00,Acu-Link.com,2013-11-04 16:55:00,
2013-11-04 12:10:00,50.9,31.4,30.13,ENE,67,2.2,-999.0,47,-99.99,,,0.00,Acu-Link.com,2013-11-04 17:10:00,
2013-11-04 12:25:00,50.2,31.3,30.13,SE,135,1.7,-999.0,48,-99.99,,,0.00,Acu-Link.com,2013-11-04 17:25:00,
2013-11-04 12:40:00,50.9,31.4,30.12,East,90,3.7,-999.0,47,-99.99,,,0.00,Acu-Link.com,2013-11-04 17:40:00,
2013-11-04 12:56:00,51.3,31.2,30.12,ESE,112,0.0,-999.0,46,-99.99,,,0.00,Acu-Link.com,2013-11-04 17:56:00,
2013-11-04 13:11:00,51.3,32.3,30.10,ENE,67,1.7,-999.0,48,-99.99,,,0.00,Acu-Link.com,2013-11-04 18:11:00,
2013-11-04 13:26:00,51.4,31.3,30.11,ENE,67,3.2,-999.0,46,-99.99,,,0.00,Acu-Link.com,2013-11-04 18:26:00,
2013-11-04 13:41:00,51.6,32.0,30.10,East,90,3.7,-999.0,47,-99.99,,,0.00,Acu-Link.com,2013-11-04 18:41:00,
2013-11-04 13:56:00,51.1,31.0,30.10,West,270,1.1,-999.0,46,-99.99,,,0.00,Acu-Link.com,2013-11-04 18:56:00,
2013-11-04 14:11:00,51.4,30.8,30.11,East,90,4.2,-999.0,45,-99.99,,,0.00,Acu-Link.com,2013-11-04 19:11:00,
2013-11-04 14:27:00,50.9,32.4,30.09,SSW,202,1.1,-999.0,49,-99.99,,,0.00,Acu-Link.com,2013-11-04 19:27:00,
2013-11-04 14:42:00,51.4,31.3,30.09,NE,45,0.0,-999.0,46,-99.99,,,0.00,Acu-Link.com,2013-11-04 19:42:00,
2013-11-04 14:57:00,51.3,31.8,30.10,West,270,0.0,-999.0,47,-99.99,,,0.00,Acu-Link.com,2013-11-04 19:57:00,
2013-11-04 15:12:00,52.0,31.3,30.10,ENE,67,3.2,-999.0,45,-99.99,,,0.00,Acu-Link.com,2013-11-04 20:12:00,
2013-11-04 15:27:00,51.4,30.8,30.10,ENE,67,2.2,-999.0,45,-99.99,,,0.00,Acu-Link.com,2013-11-04 20:27:00,
2013-11-04 15:43:00,51.4,31.9,30.09,SSW,202,0.0,-999.0,47,-99.99,,,0.00,Acu-Link.com,2013-11-04 20:43:00,
2013-11-04 15:58:00,51.1,32.1,30.09,East,90,0.0,-999.0,48,-99.99,,,0.00,Acu-Link.com,2013-11-04 20:58:00,
2013-11-04 16:13:00,51.1,32.6,30.09,East,90,0.0,-999.0,49,-99.99,,,0.00,Acu-Link.com,2013-11-04 21:13:00,
2013-11-04 16:28:00,51.1,32.6,30.09,North,0,0.0,-999.0,49,-99.99,,,0.00,Acu-Link.com,2013-11-04 21:28:00,
2013-11-04 16:44:00,51.1,32.6,30.10,WSW,247,0.0,-999.0,49,-99.99,,,0.00,Acu-Link.com,2013-11-04 21:44:00,
2013-11-04 16:59:00,50.5,32.6,30.09,ESE,112,0.0,-999.0,50,-99.99,,,0.00,Acu-Link.com,2013-11-04 21:59:00,
2013-11-04 17:14:00,49.8,32.4,30.10,ESE,112,0.0,-999.0,51,-99.99,,,0.00,Acu-Link.com,2013-11-04 22:14:00,
2013-11-04 17:29:00,49.1,32.2,30.09,East,90,0.0,-999.0,52,-99.99,,,0.00,Acu-Link.com,2013-11-04 22:29:00,
2013-11-04 17:44:00,48.2,33.2,30.09,ENE,67,0.0,-999.0,56,-99.99,,,0.00,Acu-Link.com,2013-11-04 22:44:00,
2013-11-04 18:00:00,46.8,33.2,30.09,ENE,67,0.0,-999.0,59,-99.99,,,0.00,Acu-Link.com,2013-11-04 23:00:00,
2013-11-04 18:15:00,46.2,32.7,30.10,ENE,67,0.0,-999.0,59,-99.99,,,0.00,Acu-Link.com,2013-11-04 23:15:00,
2013-11-04 18:30:00,45.5,33.2,30.10,NNE,22,0.0,-999.0,62,-99.99,,,0.00,Acu-Link.com,2013-11-04 23:30:00,
2013-11-04 18:45:00,44.8,33.4,30.10,NNE,22,0.0,-999.0,64,-99.99,,,0.00,Acu-Link.com,2013-11-04 23:45:00,
2013-11-04 19:00:00,44.1,33.9,30.10,ESE,112,0.0,-999.0,67,-99.99,,,0.00,Acu-Link.com,2013-11-05 00:00:00,
2013-11-04 19:15:00,43.7,33.8,30.10,South,180,0.0,-999.0,68,-99.99,,,0.00,Acu-Link.com,2013-11-05 00:15:00,
2013-11-04 19:30:00,43.2,34.4,30.10,SSW,202,0.0,-999.0,71,-99.99,,,0.00,Acu-Link.com,2013-11-05 00:30:00,
2013-11-04 19:45:00,42.3,34.6,30.11,NE,45,0.0,-999.0,74,-99.99,,,0.00,Acu-Link.com,2013-11-05 00:45:00,
2013-11-04 20:01:00,42.3,34.6,30.11,South,180,0.0,-999.0,74,-99.99,,,0.00,Acu-Link.com,2013-11-05 01:01:00,
2013-11-04 20:16:00,42.1,33.7,30.11,ENE,67,0.0,-999.0,72,-99.99,,,0.00,Acu-Link.com,2013-11-05 01:16:00,
2013-11-04 20:31:00,42.1,33.0,30.11,ESE,112,0.0,-999.0,70,-99.99,,,0.00,Acu-Link.com,2013-11-05 01:31:00,
2013-11-04 20:46:00,42.6,32.8,30.12,East,90,2.2,-999.0,68,-99.99,,,0.00,Acu-Link.com,2013-11-05 01:46:00,
2013-11-04 21:02:00,43.2,32.2,30.13,ENE,67,0.0,-999.0,65,-99.99,,,0.00,Acu-Link.com,2013-11-05 02:02:00,
2013-11-04 21:17:00,43.3,32.3,30.12,SW,225,0.0,-999.0,65,-99.99,,,0.00,Acu-Link.com,2013-11-05 02:17:00,
2013-11-04 21:32:00,42.3,32.9,30.14,NE,45,0.0,-999.0,69,-99.99,,,0.00,Acu-Link.com,2013-11-05 02:32:00,
2013-11-04 21:47:00,41.9,32.5,30.14,NE,45,0.0,-999.0,69,-99.99,,,0.00,Acu-Link.com,2013-11-05 02:47:00,
2013-11-04 22:02:00,41.5,32.5,30.14,ENE,67,0.0,-999.0,70,-99.99,,,0.00,Acu-Link.com,2013-11-05 03:02:00,
2013-11-04 22:17:00,41.0,34.0,30.14,NE,45,0.0,-999.0,76,-99.99,,,0.00,Acu-Link.com,2013-11-05 03:17:00,
2013-11-04 22:33:00,41.0,31.6,30.14,East,90,1.7,-999.0,69,-99.99,,,0.00,Acu-Link.com,2013-11-05 03:33:00,
2013-11-04 22:48:00,41.5,31.4,30.14,East,90,2.7,-999.0,67,-99.99,,,0.00,Acu-Link.com,2013-11-05 03:48:00,
2013-11-04 23:03:00,41.5,31.7,30.14,East,90,0.0,-999.0,68,-99.99,,,0.00,Acu-Link.com,2013-11-05 04:03:00,
2013-11-04 23:18:00,41.2,31.5,30.14,East,90,1.7,-999.0,68,-99.99,,,0.00,Acu-Link.com,2013-11-05 04:18:00,
2013-11-04 23:34:00,41.2,31.8,30.14,East,90,3.2,-999.0,69,-99.99,,,0.00,Acu-Link.com,2013-11-05 04:34:00,
2013-11-04 23:49:00,41.0,32.0,30.14,ENE,67,2.7,-999.0,70,-99.99,,,0.00,Acu-Link.com,2013-11-05 04:49:00,